Time;durP1;ratioP1;P1;durP2;ratioP2;P2;SDS_P1;SDS_P2;PMS_P1;PMS_P2;Temp;Humidity;BMP_temperature;BMP_pressure;BME280_temperature;BME280_humidity;BME280_pressure;Samples;Min_cycle;Max_cycle;Signal;HPM_P1;HPM_P2
2021/08/24 00:01:51;;;;;;;7.17;4.07;;;13.60;87.70;;;;;;4982219;28;20122;-74
2021/08/24 00:04:16;;;;;;;6.75;4.85;;;13.50;87.00;;;;;;4966247;28;20097;-74
2021/08/24 00:06:42;;;;;;;9.57;5.53;;;13.60;87.20;;;;;;4983664;28;20341;-74
2021/08/24 00:09:07;;;;;;;9.53;5.00;;;13.60;87.00;;;;;;4982640;28;20033;-74
2021/08/24 00:11:34;;;;;;;8.47;5.43;;;13.60;86.80;;;;;;4983545;28;20026;-74
2021/08/24 00:14:03;;;;;;;9.35;5.57;;;13.70;86.70;;;;;;4982262;28;20273;-74
2021/08/24 00:16:29;;;;;;;7.22;5.30;;;13.70;86.30;;;;;;4966074;28;20030;-74
2021/08/24 00:18:55;;;;;;;7.83;5.43;;;13.70;86.40;;;;;;4982531;28;20103;-74
2021/08/24 00:21:20;;;;;;;6.57;4.53;;;13.70;86.30;;;;;;4982582;28;20078;-74
2021/08/24 00:23:46;;;;;;;7.47;4.97;;;13.70;86.10;;;;;;4982328;28;20019;-74
2021/08/24 00:26:12;;;;;;;7.23;5.63;;;13.70;86.30;;;;;;4983485;28;20044;-74
2021/08/24 00:28:37;;;;;;;8.97;4.97;;;13.70;85.50;;;;;;4982546;28;20018;-74
2021/08/24 00:31:03;;;;;;;8.57;5.30;;;13.70;85.80;;;;;;4966159;28;20019;-74
2021/08/24 00:33:28;;;;;;;7.13;5.40;;;13.70;86.20;;;;;;4981989;28;20098;-74
2021/08/24 00:35:54;;;;;;;7.53;5.70;;;13.60;86.50;;;;;;4982433;28;20030;-74
2021/08/24 00:38:22;;;;;;;9.07;5.80;;;13.60;86.60;;;;;;4966185;28;20026;-74
2021/08/24 00:40:56;;;;;;;8.00;5.65;;;13.50;86.50;;;;;;4982439;28;20053;-74
2021/08/24 00:43:22;;;;;;;8.75;5.70;;;13.50;86.60;;;;;;4981433;28;20026;-74
2021/08/24 00:45:49;;;;;;;8.30;6.00;;;13.40;87.20;;;;;;4982093;28;20022;-74
2021/08/24 00:48:15;;;;;;;6.93;5.53;;;13.40;87.40;;;;;;4982231;28;20034;-74
2021/08/24 00:50:44;;;;;;;10.80;6.30;;;13.30;87.70;;;;;;4983370;28;20026;-74
2021/08/24 00:53:12;;;;;;;7.47;5.65;;;13.30;87.60;;;;;;4981877;28;20210;-74
2021/08/24 00:55:41;;;;;;;9.55;6.22;;;13.30;87.90;;;;;;4982226;28;20035;-74
2021/08/24 00:58:10;;;;;;;9.43;5.60;;;13.30;87.90;;;;;;4981484;28;20023;-74
2021/08/24 01:00:35;;;;;;;9.50;5.45;;;13.30;87.50;;;;;;4981848;28;20014;-74
2021/08/24 01:03:10;;;;;;;8.97;6.63;;;13.20;88.10;;;;;;4981889;28;20093;-74
2021/08/24 01:05:39;;;;;;;9.20;5.70;;;13.20;88.30;;;;;;4982117;28;20029;-74
2021/08/24 01:08:12;;;;;;;9.32;6.20;;;13.20;88.20;;;;;;4982096;28;20317;-74
2021/08/24 01:10:44;;;;;;;9.60;5.68;;;13.10;88.50;;;;;;4982168;28;20269;-74
2021/08/24 01:13:42;;;;;;;9.05;5.95;;;13.20;88.60;;;;;;4981647;28;20313;-74
2021/08/24 01:16:13;;;;;;;8.27;5.85;;;13.20;88.40;;;;;;4983041;28;20023;-74
2021/08/24 01:19:06;;;;;;;12.48;6.93;;;13.10;88.40;;;;;;4985528;28;20336;-74
2021/08/24 01:22:09;;;;;;;11.00;6.50;;;13.10;88.20;;;;;;4985319;28;20019;-74
2021/08/24 01:24:56;;;;;;;7.75;5.60;;;13.10;88.50;;;;;;4986349;28;20019;-74
2021/08/24 01:27:35;;;;;;;8.57;6.25;;;13.20;88.90;;;;;;4942944;28;20051;-74
2021/08/24 01:30:21;;;;;;;7.45;6.07;;;13.20;88.60;;;;;;4985013;28;20108;-74
2021/08/24 01:33:01;;;;;;;8.55;5.70;;;13.30;88.30;;;;;;4985984;28;20026;-74
2021/08/24 01:35:32;;;;;;;12.05;6.97;;;13.30;88.30;;;;;;4985139;28;20014;-74
2021/08/24 01:38:07;;;;;;;9.95;6.93;;;13.40;87.90;;;;;;4985707;28;20359;-74
2021/08/24 01:40:38;;;;;;;7.65;6.07;;;13.40;87.80;;;;;;4986186;28;20073;-74
2021/08/24 01:43:04;;;;;;;10.02;6.97;;;13.40;87.50;;;;;;4984251;28;20021;-74
2021/08/24 01:45:34;;;;;;;;;;;13.40;86.60;;;;;;4985034;28;20061;-74
2021/08/24 01:48:24;;;;;;;9.95;7.03;;;13.50;86.90;;;;;;4984992;28;19934;-75
2021/08/24 01:50:57;;;;;;;11.77;6.65;;;13.40;86.50;;;;;;4985041;28;20429;-75
2021/08/24 01:53:35;;;;;;;9.75;6.18;;;13.40;86.20;;;;;;4984573;28;20142;-75
2021/08/24 01:56:13;;;;;;;10.27;6.60;;;13.40;86.50;;;;;;4968576;28;20022;-74
2021/08/24 01:58:46;;;;;;;9.30;6.25;;;13.40;86.50;;;;;;4984129;28;20069;-74
2021/08/24 02:01:13;;;;;;;8.77;6.03;;;13.40;86.60;;;;;;4984462;28;20014;-74
2021/08/24 02:03:41;;;;;;;10.52;6.70;;;13.40;86.50;;;;;;4984393;28;20023;-75
2021/08/24 02:06:36;;;;;;;10.43;6.35;;;13.30;86.40;;;;;;4984559;28;20383;-75
2021/08/24 02:09:06;;;;;;;9.68;6.50;;;13.30;86.80;;;;;;4968434;28;20027;-75
2021/08/24 02:11:32;;;;;;;10.55;6.50;;;13.40;87.00;;;;;;4984375;28;20054;-74
2021/08/24 02:13:58;;;;;;;11.73;6.67;;;13.30;86.70;;;;;;4984055;28;20030;-75
2021/08/24 02:16:25;;;;;;;9.50;6.43;;;13.40;87.60;;;;;;4984342;28;20278;-74
2021/08/24 02:18:53;;;;;;;11.70;6.40;;;13.50;86.30;;;;;;4968168;28;20261;-74
2021/08/24 02:21:28;;;;;;;14.07;6.88;;;13.40;86.50;;;;;;4984292;28;20023;-74
2021/08/24 02:23:54;;;;;;;10.18;6.38;;;13.40;86.80;;;;;;4984079;28;20018;-74
2021/08/24 02:26:20;;;;;;;13.88;7.03;;;13.40;87.00;;;;;;4984042;28;20044;-74
2021/08/24 02:28:51;;;;;;;9.50;6.37;;;13.40;87.20;;;;;;4968079;28;20276;-74
2021/08/24 02:31:24;;;;;;;8.85;5.70;;;13.40;86.90;;;;;;4983838;28;20042;-74
2021/08/24 02:34:20;;;;;;;11.57;6.85;;;13.40;87.20;;;;;;4983959;28;20254;-74
2021/08/24 02:37:12;;;;;;;8.57;6.18;;;13.40;87.20;;;;;;4983408;28;20018;-74
2021/08/24 02:39:41;;;;;;;9.38;6.30;;;13.40;87.60;;;;;;4977000;28;20030;-74
2021/08/24 02:42:12;;;;;;;13.57;6.57;;;13.40;87.50;;;;;;4983696;28;20027;-74
2021/08/24 02:44:43;;;;;;;10.20;6.72;;;13.40;87.30;;;;;;4984124;28;20313;-74
2021/08/24 02:47:09;;;;;;;9.85;6.47;;;13.40;87.40;;;;;;4967737;28;20018;-74
2021/08/24 02:49:35;;;;;;;8.40;6.07;;;13.40;87.00;;;;;;4983827;28;20321;-74
2021/08/24 02:52:03;;;;;;;8.50;6.43;;;13.40;87.00;;;;;;4983434;28;20023;-74
2021/08/24 02:54:33;;;;;;;10.23;6.43;;;13.40;87.20;;;;;;4967369;28;20030;-74
2021/08/24 02:57:00;;;;;;;10.63;7.05;;;13.40;87.10;;;;;;4983761;28;20036;-74
2021/08/24 02:59:27;;;;;;;11.90;6.25;;;13.40;86.80;;;;;;4982495;28;20034;-74
2021/08/24 03:01:52;;;;;;;8.95;6.63;;;13.40;87.10;;;;;;4983355;28;20023;-74
2021/08/24 03:04:18;;;;;;;10.20;6.37;;;13.40;86.80;;;;;;4983486;28;20070;-74
2021/08/24 03:06:48;;;;;;;12.93;6.33;;;13.40;86.70;;;;;;4982641;28;20379;-74
2021/08/24 03:09:15;;;;;;;8.95;5.13;;;13.40;86.80;;;;;;4983467;28;20054;-74
2021/08/24 03:11:45;;;;;;;;;;;13.40;86.90;;;;;;4983703;28;20031;-74
2021/08/24 03:14:20;;;;;;;12.23;6.28;;;13.40;86.50;;;;;;4983349;28;19909;-74
2021/08/24 03:16:49;;;;;;;10.57;6.63;;;13.40;86.70;;;;;;4983328;28;20033;-74
2021/08/24 03:19:18;;;;;;;9.30;6.30;;;13.40;86.70;;;;;;4983264;28;20069;-74
2021/08/24 03:21:43;;;;;;;10.43;6.43;;;13.40;86.10;;;;;;4982891;28;20015;-74
2021/08/24 03:24:10;;;;;;;9.90;6.00;;;13.40;85.90;;;;;;4983078;28;20098;-74
2021/08/24 03:26:36;;;;;;;7.88;5.28;;;13.40;86.10;;;;;;4966999;28;20070;-74
2021/08/24 03:29:09;;;;;;;8.93;5.67;;;13.40;86.00;;;;;;4983211;28;20022;-74
2021/08/24 03:31:35;;;;;;;16.60;6.10;;;13.50;86.10;;;;;;4982978;28;20089;-74
2021/08/24 03:34:01;;;;;;;7.70;5.72;;;13.40;85.60;;;;;;4982831;28;20019;-74
2021/08/24 03:36:26;;;;;;;10.53;5.80;;;13.50;85.80;;;;;;4983016;28;20030;-74
2021/08/24 03:38:52;;;;;;;10.87;5.77;;;13.50;85.80;;;;;;4981809;28;20269;-74
2021/08/24 03:41:18;;;;;;;11.00;6.07;;;13.40;85.80;;;;;;4983004;28;20022;-74
2021/08/24 03:43:43;;;;;;;7.27;5.40;;;13.40;86.20;;;;;;4982610;28;20232;-74
2021/08/24 03:46:09;;;;;;;7.73;5.03;;;13.40;85.90;;;;;;4982882;28;20078;-74
2021/08/24 03:48:34;;;;;;;11.43;6.17;;;13.40;86.50;;;;;;4982884;28;20022;-74
2021/08/24 03:51:00;;;;;;;9.20;5.20;;;13.40;85.70;;;;;;4982847;28;20068;-74
2021/08/24 03:53:26;;;;;;;9.60;5.33;;;13.50;86.10;;;;;;4966028;28;20388;-74
2021/08/24 03:55:51;;;;;;;8.97;5.63;;;13.50;85.90;;;;;;4983851;28;20027;-74
2021/08/24 03:58:17;;;;;;;8.43;5.37;;;13.50;85.80;;;;;;4966584;28;20027;-74
2021/08/24 04:00:47;;;;;;;9.35;5.20;;;13.50;85.30;;;;;;4982800;28;20057;-74
2021/08/24 04:03:13;;;;;;;12.13;5.20;;;13.50;85.80;;;;;;4983527;28;20317;-74
2021/08/24 04:05:38;;;;;;;10.17;5.50;;;13.50;85.90;;;;;;4982719;28;20037;-74
2021/08/24 04:08:04;;;;;;;7.93;4.53;;;13.50;86.00;;;;;;4982825;28;20030;-74
2021/08/24 04:10:30;;;;;;;10.18;5.15;;;13.50;85.90;;;;;;4966599;28;20027;-74
2021/08/24 04:12:55;;;;;;;12.90;6.00;;;13.50;85.80;;;;;;4983383;28;20053;-74
2021/08/24 04:15:21;;;;;;;9.27;4.67;;;13.50;85.20;;;;;;4982425;28;20027;-74
2021/08/24 04:17:47;;;;;;;9.37;4.70;;;13.50;85.50;;;;;;4966438;28;20097;-74
2021/08/24 04:20:13;;;;;;;10.20;5.07;;;13.50;85.30;;;;;;4982636;28;20015;-74
2021/08/24 04:22:40;;;;;;;9.93;5.03;;;13.50;85.90;;;;;;4982002;28;20018;-74
2021/08/24 04:25:05;;;;;;;;;;;13.50;85.60;;;;;;4961395;28;20222;-74
2021/08/24 04:27:31;;;;;;;7.20;4.57;;;13.50;85.50;;;;;;4962986;28;19910;-74
2021/08/24 04:29:57;;;;;;;7.50;4.83;;;13.50;85.50;;;;;;4979141;28;20027;-74
2021/08/24 04:32:25;;;;;;;10.23;5.10;;;13.60;85.60;;;;;;4963782;29;20050;-74
2021/08/24 04:34:51;;;;;;;9.30;4.78;;;13.60;85.10;;;;;;4978853;28;20094;-75
2021/08/24 04:37:16;;;;;;;6.83;5.13;;;13.60;85.00;;;;;;4981439;28;20191;-75
2021/08/24 04:39:42;;;;;;;8.57;4.33;;;13.60;84.90;;;;;;4962432;28;20019;-75
2021/08/24 04:42:08;;;;;;;7.43;4.63;;;13.60;84.80;;;;;;4962812;29;20023;-74
2021/08/24 04:44:33;;;;;;;5.33;4.30;;;13.60;84.80;;;;;;4978893;28;20086;-74
2021/08/24 04:46:59;;;;;;;6.13;4.23;;;13.60;84.00;;;;;;4982438;28;20023;-74
2021/08/24 04:49:25;;;;;;;7.27;4.53;;;13.50;84.20;;;;;;4966115;28;20317;-74
2021/08/24 04:51:51;;;;;;;6.63;4.30;;;13.50;84.60;;;;;;4984037;28;20026;-74
2021/08/24 04:54:17;;;;;;;7.43;4.83;;;13.60;85.00;;;;;;4985749;28;20224;-75
2021/08/24 04:56:43;;;;;;;7.93;4.60;;;13.60;84.50;;;;;;4986886;28;20366;-75
2021/08/24 04:59:08;;;;;;;9.23;4.80;;;13.60;84.30;;;;;;4985848;28;20038;-75
2021/08/24 05:01:34;;;;;;;10.53;5.47;;;13.60;84.20;;;;;;4985695;28;20030;-75
2021/08/24 05:04:00;;;;;;;8.60;4.43;;;13.70;84.10;;;;;;4969161;28;20229;-75
2021/08/24 05:06:25;;;;;;;7.93;4.90;;;13.70;84.20;;;;;;4968689;28;20050;-75
2021/08/24 05:08:51;;;;;;;8.43;4.10;;;13.70;83.90;;;;;;4986459;28;20345;-76
2021/08/24 05:11:17;;;;;;;8.87;4.77;;;13.70;84.30;;;;;;4985532;28;20051;-75
2021/08/24 05:13:42;;;;;;;6.77;4.93;;;13.70;84.10;;;;;;4985159;28;20081;-75
2021/08/24 05:16:08;;;;;;;6.30;4.10;;;13.80;83.90;;;;;;4985314;28;20392;-75
2021/08/24 05:18:35;;;;;;;7.60;4.15;;;13.70;83.00;;;;;;4985490;28;20019;-75
2021/08/24 05:21:02;;;;;;;7.33;4.57;;;13.80;83.40;;;;;;5018108;23;20051;-75
2021/08/24 05:23:28;;;;;;;6.18;4.38;;;13.80;83.40;;;;;;4985856;28;20266;-75
2021/08/24 05:25:53;;;;;;;7.00;4.47;;;13.80;83.50;;;;;;4965887;29;20027;-75
2021/08/24 05:28:19;;;;;;;6.13;4.30;;;13.80;83.00;;;;;;4982395;28;20049;-75
2021/08/24 05:30:44;;;;;;;9.70;4.93;;;13.80;83.30;;;;;;4968888;28;20165;-76
2021/08/24 05:33:10;;;;;;;6.93;4.50;;;13.80;83.30;;;;;;4985261;28;20050;-76
2021/08/24 05:35:36;;;;;;;8.80;4.60;;;13.90;83.60;;;;;;4985687;28;20085;-75
2021/08/24 05:38:01;;;;;;;6.90;4.50;;;13.80;83.10;;;;;;4968812;28;20031;-75
2021/08/24 05:40:27;;;;;;;8.17;4.50;;;13.80;83.40;;;;;;4984956;28;20019;-75
2021/08/24 05:42:52;;;;;;;8.13;4.33;;;13.80;83.90;;;;;;4966494;28;20078;-75
2021/08/24 05:45:18;;;;;;;7.37;5.27;;;13.90;83.40;;;;;;4965462;29;20046;-76
2021/08/24 05:47:44;;;;;;;10.40;4.27;;;13.90;82.40;;;;;;4981077;28;20030;-75
2021/08/24 05:50:10;;;;;;;13.57;4.87;;;13.90;83.20;;;;;;4984797;28;20054;-75
2021/08/24 05:52:35;;;;;;;6.17;4.10;;;14.00;83.70;;;;;;4984483;28;20102;-75
2021/08/24 05:55:01;;;;;;;11.00;5.40;;;14.00;82.80;;;;;;4984677;28;20210;-75
2021/08/24 05:57:27;;;;;;;7.93;4.50;;;13.90;81.90;;;;;;4984815;28;20065;-75
2021/08/24 05:59:52;;;;;;;10.77;4.63;;;14.00;82.70;;;;;;4984619;28;20023;-76
2021/08/24 06:02:18;;;;;;;8.30;4.30;;;14.00;83.20;;;;;;4967604;28;20245;-76
2021/08/24 06:04:43;;;;;;;6.33;3.83;;;14.10;83.00;;;;;;4984555;28;20041;-75
2021/08/24 06:07:10;;;;;;;8.57;4.40;;;14.20;82.90;;;;;;4967461;28;20018;-75
2021/08/24 06:09:36;;;;;;;;;;;14.20;82.00;;;;;;4984950;28;20026;-75
2021/08/24 06:12:01;;;;;;;8.52;4.25;;;14.30;81.70;;;;;;4984017;28;19906;-75
2021/08/24 06:14:27;;;;;;;6.90;3.73;;;14.30;81.40;;;;;;4984490;28;20015;-75
2021/08/24 06:16:57;;;;;;;8.10;4.23;;;14.30;81.10;;;;;;4984221;28;20018;-75
2021/08/24 06:19:24;;;;;;;7.35;4.40;;;14.30;81.70;;;;;;4984270;28;20042;-75
2021/08/24 06:21:49;;;;;;;;;;;14.30;80.30;;;;;;4984181;28;20031;-76
2021/08/24 06:24:15;;;;;;;8.43;4.10;;;14.20;81.20;;;;;;4978921;28;20006;-76
2021/08/24 06:26:42;;;;;;;6.27;3.83;;;14.30;81.80;;;;;;4948552;29;20029;-76
2021/08/24 06:29:07;;;;;;;6.55;3.72;;;14.40;82.10;;;;;;4964908;29;20026;-76
2021/08/24 06:31:35;;;;;;;10.13;4.87;;;14.50;82.20;;;;;;4948737;29;20101;-76
2021/08/24 06:34:00;;;;;;;6.50;3.50;;;14.50;80.90;;;;;;4948693;29;20019;-76
2021/08/24 06:36:26;;;;;;;8.00;3.70;;;14.50;81.20;;;;;;4970277;28;20054;-76
2021/08/24 06:38:52;;;;;;;10.47;3.90;;;14.60;80.70;;;;;;4964696;28;20015;-76
2021/08/24 06:41:18;;;;;;;10.50;4.93;;;14.70;81.10;;;;;;4965407;28;20011;-76
2021/08/24 06:43:43;;;;;;;9.97;4.00;;;14.80;81.80;;;;;;4957578;28;20015;-75
2021/08/24 06:46:09;;;;;;;12.67;4.43;;;14.90;81.90;;;;;;4974044;28;20070;-76
2021/08/24 06:48:34;;;;;;;11.77;4.67;;;15.00;81.80;;;;;;4974002;28;20020;-76
2021/08/24 06:51:01;;;;;;;9.13;4.30;;;15.10;80.60;;;;;;4957438;28;20094;-76
2021/08/24 06:53:26;;;;;;;12.30;4.72;;;15.00;79.50;;;;;;4963463;28;20086;-75
2021/08/24 06:55:52;;;;;;;11.23;4.77;;;15.00;80.10;;;;;;4957412;28;20318;-76
2021/08/24 06:58:19;;;;;;;12.83;5.83;;;15.00;79.40;;;;;;4956056;28;20306;-76
2021/08/24 07:00:48;;;;;;;11.10;4.32;;;15.20;80.50;;;;;;4973393;28;20019;-75
2021/08/24 07:03:14;;;;;;;10.63;4.30;;;15.40;80.20;;;;;;4971728;28;20035;-76
2021/08/24 07:05:42;;;;;;;10.82;4.50;;;15.50;79.50;;;;;;4956792;28;20022;-76
2021/08/24 07:08:08;;;;;;;7.57;4.45;;;15.60;79.70;;;;;;4973557;28;20062;-76
2021/08/24 07:10:33;;;;;;;8.88;4.88;;;15.80;78.10;;;;;;4958573;28;20041;-76
2021/08/24 07:12:59;;;;;;;6.77;3.93;;;15.90;79.10;;;;;;4982538;28;20019;-76
2021/08/24 07:15:25;;;;;;;9.23;4.67;;;16.00;78.20;;;;;;4967045;28;20015;-76
2021/08/24 07:17:52;;;;;;;10.70;4.43;;;16.10;77.80;;;;;;4983078;28;20305;-76
2021/08/24 07:20:21;;;;;;;6.55;4.20;;;16.10;76.80;;;;;;4966985;28;20015;-77
2021/08/24 07:22:47;;;;;;;10.43;4.07;;;16.00;77.70;;;;;;4963913;28;20022;-77
2021/08/24 07:25:14;;;;;;;6.23;4.13;;;16.00;77.90;;;;;;4948142;29;20086;-76
2021/08/24 07:27:40;;;;;;;10.75;4.30;;;16.00;77.20;;;;;;4950879;28;20015;-77
2021/08/24 07:30:06;;;;;;;8.40;4.20;;;16.10;77.50;;;;;;4973445;28;20085;-77
2021/08/24 07:32:32;;;;;;;13.88;4.50;;;16.00;77.60;;;;;;4941437;28;20225;-77
2021/08/24 07:34:57;;;;;;;8.27;4.87;;;16.00;78.70;;;;;;4971969;28;20011;-77
2021/08/24 07:37:23;;;;;;;8.70;4.20;;;16.00;78.90;;;;;;4975219;28;20022;-77
2021/08/24 07:39:49;;;;;;;7.83;5.20;;;16.00;78.30;;;;;;4972962;28;20332;-77
2021/08/24 07:42:14;;;;;;;8.80;5.47;;;16.00;78.70;;;;;;4956875;28;20015;-77
2021/08/24 07:44:40;;;;;;;9.67;4.47;;;15.80;77.20;;;;;;4942693;28;20042;-76
2021/08/24 07:47:06;;;;;;;6.40;4.50;;;15.90;78.60;;;;;;4941112;28;20022;-77
2021/08/24 07:49:35;;;;;;;9.25;5.60;;;15.90;79.10;;;;;;4973423;28;20129;-77
2021/08/24 07:52:02;;;;;;;9.52;5.38;;;15.90;78.30;;;;;;4974962;28;20027;-76
2021/08/24 07:54:28;;;;;;;14.23;6.03;;;16.00;79.20;;;;;;4941725;28;20010;-76
2021/08/24 07:56:54;;;;;;;12.80;6.43;;;16.00;79.40;;;;;;4973288;28;20023;-77
2021/08/24 07:59:19;;;;;;;7.37;5.33;;;16.00;79.50;;;;;;4977221;28;20023;-76
2021/08/24 08:01:45;;;;;;;9.47;5.97;;;16.10;79.70;;;;;;4982635;28;20027;-77
2021/08/24 08:04:11;;;;;;;10.23;6.17;;;16.10;79.50;;;;;;4982887;28;20086;-77
2021/08/24 08:06:39;;;;;;;10.90;6.17;;;16.20;78.40;;;;;;4966836;28;20115;-77
2021/08/24 08:09:04;;;;;;;10.77;5.90;;;16.20;79.00;;;;;;4947408;28;20024;-76
2021/08/24 08:11:32;;;;;;;10.30;6.13;;;16.20;79.40;;;;;;4964342;28;20217;-76
2021/08/24 08:13:59;;;;;;;11.23;6.65;;;16.20;77.70;;;;;;4963337;28;20075;-76
2021/08/24 08:16:25;;;;;;;13.13;6.93;;;16.30;78.20;;;;;;4963480;29;20314;-77
2021/08/24 08:18:51;;;;;;;10.17;6.37;;;16.40;78.00;;;;;;4947125;29;20087;-77
2021/08/24 08:21:18;;;;;;;9.20;6.30;;;16.50;77.60;;;;;;4979177;28;20227;-77
2021/08/24 08:23:43;;;;;;;10.07;7.18;;;16.50;77.30;;;;;;4962801;29;20034;-77
2021/08/24 08:26:09;;;;;;;11.37;5.97;;;16.50;77.30;;;;;;4966428;28;20019;-77
2021/08/24 08:28:34;;;;;;;11.83;6.83;;;16.70;78.00;;;;;;4953238;28;20097;-76
2021/08/24 08:31:01;;;;;;;11.53;6.13;;;16.70;78.00;;;;;;4959506;28;20103;-77
2021/08/24 08:33:27;;;;;;;;;;;16.70;77.30;;;;;;4977895;28;20049;-76
2021/08/24 08:35:52;;;;;;;10.52;6.60;;;16.70;76.50;;;;;;4976614;28;19902;-77
2021/08/24 08:38:18;;;;;;;11.63;6.20;;;16.70;76.90;;;;;;4961105;28;20010;-76
2021/08/24 08:40:52;;;;;;;8.97;7.10;;;16.80;76.40;;;;;;4974785;28;20014;-77
2021/08/24 08:43:44;;;;;;;12.25;6.93;;;16.90;76.90;;;;;;4966749;29;20023;-77
2021/08/24 08:46:38;;;;;;;12.85;7.57;;;17.10;76.50;;;;;;4945517;29;20059;-77
2021/08/24 08:49:45;;;;;;;9.93;6.82;;;17.20;76.00;;;;;;4957040;28;20011;-77
2021/08/24 08:52:25;;;;;;;12.07;7.20;;;17.30;75.90;;;;;;4985815;28;20022;-76
2021/08/24 08:54:59;;;;;;;11.60;7.47;;;17.30;76.30;;;;;;4970351;28;20030;-76
2021/08/24 08:57:37;;;;;;;12.30;7.32;;;17.20;75.00;;;;;;4986587;28;20039;-76
2021/08/24 09:00:17;;;;;;;;;;;17.20;75.20;;;;;;4986309;28;20074;-76
2021/08/24 09:03:04;;;;;;;12.75;7.45;;;17.30;76.00;;;;;;4985406;28;19908;-76
2021/08/24 09:05:30;;;;;;;11.05;7.35;;;17.40;75.80;;;;;;4985806;28;20025;-76
2021/08/24 09:07:57;;;;;;;10.93;7.90;;;17.50;74.40;;;;;;4984790;28;20356;-77
2021/08/24 09:10:22;;;;;;;;;;;17.50;74.70;;;;;;4985831;28;20023;-76
2021/08/24 09:13:16;;;;;;;12.55;8.05;;;17.50;74.60;;;;;;4986390;28;20038;-76
2021/08/24 09:16:09;;;;;;;10.65;6.97;;;17.60;73.70;;;;;;4947688;29;20098;-76
2021/08/24 09:18:49;;;;;;;9.65;7.40;;;17.70;73.70;;;;;;4936759;29;20023;-76
2021/08/24 09:21:24;;;;;;;11.00;8.18;;;17.90;74.80;;;;;;4966972;28;20362;-76
2021/08/24 09:23:54;;;;;;;15.55;7.78;;;17.90;72.60;;;;;;4950321;29;20224;-75
2021/08/24 09:27:00;;;;;;;9.45;7.45;;;17.90;73.30;;;;;;4934701;29;20031;-78
2021/08/24 09:29:34;;;;;;;10.98;7.63;;;18.10;74.30;;;;;;4960616;28;20015;-77
2021/08/24 09:32:04;;;;;;;9.45;7.50;;;18.20;71.60;;;;;;4965765;29;20102;-79
2021/08/24 09:34:34;;;;;;;10.27;7.10;;;18.20;70.90;;;;;;4936192;29;20026;-78
2021/08/24 09:36:59;;;;;;;10.18;7.40;;;18.30;71.20;;;;;;4949094;29;20199;-79
2021/08/24 09:39:48;;;;;;;8.43;7.03;;;18.40;71.40;;;;;;4979241;28;20022;-77
2021/08/24 09:42:14;;;;;;;8.10;6.57;;;18.50;71.40;;;;;;4984496;28;20348;-76
2021/08/24 09:44:39;;;;;;;12.60;7.73;;;18.60;70.90;;;;;;4987915;28;20026;-79
2021/08/24 09:47:16;;;;;;;13.63;7.17;;;18.70;71.30;;;;;;4987308;28;20314;-79
2021/08/24 09:49:42;;;;;;;8.88;7.10;;;19.00;68.50;;;;;;4985796;28;20018;-80
2021/08/24 09:52:12;;;;;;;10.60;7.90;;;19.30;67.10;;;;;;4988475;28;20057;-76
2021/08/24 09:54:40;;;;;;;9.38;6.95;;;19.30;64.50;;;;;;4976065;28;20034;-76
2021/08/24 09:57:09;;;;;;;9.30;6.32;;;19.30;65.30;;;;;;4971104;28;20019;-78
2021/08/24 10:00:01;;;;;;;13.15;7.72;;;19.40;65.10;;;;;;4988199;28;20021;-75
2021/08/24 10:02:26;;;;;;;10.25;7.32;;;19.50;66.50;;;;;;4968491;28;20037;-76
2021/08/24 10:04:54;;;;;;;8.87;6.67;;;19.80;65.80;;;;;;4984661;28;20050;-75
2021/08/24 10:07:31;;;;;;;9.98;7.10;;;19.90;62.40;;;;;;4985115;28;20023;-75
2021/08/24 10:09:56;;;;;;;;;;;20.10;62.60;;;;;;4984750;28;20019;-75
2021/08/24 10:12:30;;;;;;;10.10;7.53;;;20.10;61.80;;;;;;4985345;28;20085;-74
2021/08/24 10:14:56;;;;;;;8.88;7.35;;;20.20;62.30;;;;;;4967897;28;20082;-75
2021/08/24 10:17:34;;;;;;;9.03;7.00;;;20.20;62.70;;;;;;4985555;28;20081;-74
2021/08/24 10:20:01;;;;;;;9.05;6.88;;;20.20;61.60;;;;;;4984255;28;20022;-75
2021/08/24 10:22:36;;;;;;;8.40;6.50;;;20.20;60.70;;;;;;4984476;28;20027;-74
2021/08/24 10:25:09;;;;;;;9.35;6.35;;;20.30;61.40;;;;;;4984122;28;20027;-74
2021/08/24 10:27:55;;;;;;;8.52;6.63;;;20.30;63.80;;;;;;4984253;28;20213;-75
2021/08/24 10:30:46;;;;;;;9.88;7.07;;;20.30;61.70;;;;;;4979879;28;20019;-77
2021/08/24 10:33:31;;;;;;;10.82;6.90;;;20.40;62.10;;;;;;4977380;28;20233;-77
2021/08/24 10:36:02;;;;;;;9.80;7.35;;;20.10;61.20;;;;;;4942768;29;20015;-75
2021/08/24 10:38:39;;;;;;;8.43;6.88;;;20.10;62.20;;;;;;4932176;29;20099;-75
2021/08/24 10:41:17;;;;;;;9.30;6.70;;;20.10;62.90;;;;;;4948879;29;20015;-75
2021/08/24 10:43:49;;;;;;;11.60;6.97;;;20.10;63.50;;;;;;4964389;29;20147;-76
2021/08/24 10:46:15;;;;;;;10.27;6.88;;;20.10;62.80;;;;;;4964650;29;20022;-75
2021/08/24 10:48:41;;;;;;;9.25;6.85;;;20.20;63.20;;;;;;4948430;29;20031;-75
2021/08/24 10:51:14;;;;;;;9.93;6.47;;;20.20;63.20;;;;;;4959349;28;20085;-77
2021/08/24 10:53:49;;;;;;;10.23;6.90;;;20.20;62.30;;;;;;4966852;29;20034;-78
2021/08/24 10:56:25;;;;;;;9.52;6.45;;;20.00;63.70;;;;;;4966747;29;20019;-76
2021/08/24 10:59:08;;;;;;;9.27;6.50;;;20.00;62.80;;;;;;4966432;29;20066;-78
2021/08/24 11:01:46;;;;;;;7.25;5.90;;;19.90;63.50;;;;;;4967660;28;20043;-76
2021/08/24 11:04:38;;;;;;;9.32;6.13;;;19.90;62.60;;;;;;4948112;29;20195;-77
2021/08/24 11:07:09;;;;;;;9.38;6.40;;;20.00;62.10;;;;;;4984873;28;20014;-77
2021/08/24 11:10:03;;;;;;;8.90;6.55;;;20.00;62.40;;;;;;4987752;28;20043;-76
2021/08/24 11:13:07;;;;;;;8.95;6.82;;;19.90;61.60;;;;;;4978142;28;20034;-76
2021/08/24 11:15:48;;;;;;;8.50;5.97;;;19.90;62.80;;;;;;4985477;28;20046;-73
2021/08/24 11:18:31;;;;;;;10.80;6.57;;;20.10;60.10;;;;;;4983823;28;20322;-73
2021/08/24 11:21:08;;;;;;;9.77;6.28;;;20.30;60.20;;;;;;4988132;23;20324;-72
2021/08/24 11:23:40;;;;;;;9.30;6.57;;;20.30;59.80;;;;;;4993022;28;20098;-72
2021/08/24 11:26:14;;;;;;;8.20;6.05;;;20.30;60.50;;;;;;5003706;28;20302;-73
2021/08/24 11:28:49;;;;;;;8.35;6.30;;;20.40;59.90;;;;;;5002028;28;20018;-74
2021/08/24 11:31:36;;;;;;;9.43;6.07;;;20.20;61.00;;;;;;4996181;28;20061;-74
2021/08/24 11:34:09;;;;;;;8.10;6.73;;;20.00;61.80;;;;;;4983708;28;20042;-74
2021/08/24 11:36:43;;;;;;;7.20;5.45;;;19.80;61.90;;;;;;4967303;28;20019;-74
2021/08/24 11:39:20;;;;;;;8.02;6.45;;;19.80;62.40;;;;;;4981918;28;20064;-74
2021/08/24 11:41:47;;;;;;;8.30;5.55;;;19.80;63.70;;;;;;4966617;28;20057;-74
2021/08/24 11:44:24;;;;;;;9.95;7.07;;;19.80;63.50;;;;;;4983142;28;20031;-75
2021/08/24 11:46:55;;;;;;;9.10;6.40;;;20.20;64.10;;;;;;4982491;28;20022;-72
2021/08/24 11:49:34;;;;;;;7.07;6.20;;;20.80;61.40;;;;;;4982177;28;20313;-73
2021/08/24 11:52:22;;;;;;;7.93;5.75;;;21.00;59.00;;;;;;4976934;28;20038;-75
2021/08/24 11:54:57;;;;;;;;;;;21.30;58.50;;;;;;4973151;28;20019;-74
2021/08/24 11:57:41;;;;;;;7.32;6.03;;;21.60;58.60;;;;;;4963945;29;19902;-74
2021/08/24 12:00:08;;;;;;;7.43;5.90;;;21.90;57.00;;;;;;4948200;29;20022;-74
2021/08/24 12:02:38;;;;;;;6.63;4.95;;;21.90;56.50;;;;;;4946814;29;20097;-74
2021/08/24 12:05:04;;;;;;;6.75;5.20;;;22.20;54.60;;;;;;4947377;29;20458;-73
2021/08/24 12:07:37;;;;;;;7.88;5.13;;;22.20;56.60;;;;;;4946847;29;20061;-73
2021/08/24 12:10:22;;;;;;;11.95;5.55;;;22.40;57.60;;;;;;4955727;28;20022;-74
2021/08/24 12:13:01;;;;;;;6.45;5.30;;;22.50;53.00;;;;;;4967638;28;20027;-74
2021/08/24 12:15:30;;;;;;;6.88;5.07;;;22.40;53.20;;;;;;4981831;28;20019;-73
2021/08/24 12:18:07;;;;;;;8.63;5.10;;;22.90;55.50;;;;;;4981769;28;20070;-75
2021/08/24 12:20:39;;;;;;;6.13;4.88;;;23.80;50.60;;;;;;4981958;28;20344;-75
2021/08/24 12:23:06;;;;;;;5.47;4.07;;;23.80;51.10;;;;;;4976534;28;20042;-75
2021/08/24 12:25:32;;;;;;;8.85;4.40;;;23.40;50.40;;;;;;4973752;28;20026;-74
2021/08/24 12:28:22;;;;;;;6.90;4.10;;;22.90;52.80;;;;;;4983508;28;20085;-74
2021/08/24 12:31:09;;;;;;;5.88;4.38;;;22.70;52.40;;;;;;4973455;28;20182;-74
2021/08/24 12:33:42;;;;;;;8.47;5.67;;;22.10;53.00;;;;;;4981886;28;20023;-74
2021/08/24 12:36:17;;;;;;;9.90;4.60;;;21.60;54.70;;;;;;4982118;28;20090;-72
2021/08/24 12:38:49;;;;;;;8.50;4.60;;;21.30;56.10;;;;;;4982469;28;20018;-72
2021/08/24 12:41:33;;;;;;;5.90;5.00;;;21.10;56.60;;;;;;4982706;28;20017;-74
2021/08/24 12:44:23;;;;;;;8.13;5.10;;;20.80;57.30;;;;;;4976710;28;20022;-74
2021/08/24 12:47:30;;;;;;;7.93;5.00;;;20.80;58.50;;;;;;4949849;28;20032;-75
2021/08/24 12:50:08;;;;;;;5.35;4.43;;;20.80;59.00;;;;;;4973684;28;20023;-73
2021/08/24 12:52:43;;;;;;;6.55;4.88;;;21.00;58.10;;;;;;4973296;28;20348;-73
2021/08/24 12:55:09;;;;;;;7.28;4.97;;;22.20;56.30;;;;;;4977922;28;20082;-74
2021/08/24 12:57:37;;;;;;;6.83;4.90;;;22.80;52.60;;;;;;4971873;28;20030;-73
2021/08/24 13:00:37;;;;;;;7.80;5.03;;;22.90;53.50;;;;;;4939593;28;20313;-74
2021/08/24 13:03:22;;;;;;;7.75;4.80;;;22.80;53.40;;;;;;4971902;28;20038;-73
2021/08/24 13:05:49;;;;;;;6.95;5.20;;;22.40;54.10;;;;;;4970003;28;20045;-73